Time;durP1;ratioP1;P1;durP2;ratioP2;P2;SDS_P1;SDS_P2;PMS_P1;PMS_P2;Temp;Humidity;BMP_temperature;BMP_pressure;BME280_temperature;BME280_humidity;BME280_pressure;Samples;Min_cycle;Max_cycle;Signal;HPM_P1;HPM_P2
2022/02/24 00:01:50;;;;;;;3.57;3.27;;;5.90;99.90;;;;;;4993593;28;20176;-66
2022/02/24 00:04:16;;;;;;;3.80;3.50;;;5.90;99.90;;;;;;5005909;28;20260;-66
2022/02/24 00:06:41;;;;;;;6.87;3.77;;;5.90;99.90;;;;;;5005080;28;20713;-66
2022/02/24 00:09:07;;;;;;;4.20;3.30;;;6.00;99.90;;;;;;5003133;28;20191;-67
2022/02/24 00:11:34;;;;;;;3.87;3.47;;;6.00;99.90;;;;;;4999300;28;21806;-66
2022/02/24 00:14:00;;;;;;;3.93;3.33;;;6.10;99.90;;;;;;4994538;28;20962;-66
2022/02/24 00:16:26;;;;;;;4.33;3.33;;;6.10;99.90;;;;;;4975862;28;20493;-66
2022/02/24 00:18:51;;;;;;;3.87;3.20;;;6.30;99.90;;;;;;4992928;28;20199;-66
2022/02/24 00:21:17;;;;;;;4.27;3.30;;;6.30;99.90;;;;;;4998452;28;20207;-66
2022/02/24 00:23:42;;;;;;;5.80;3.67;;;6.40;99.90;;;;;;5024632;28;20203;-66
2022/02/24 00:26:08;;;;;;;2.70;2.50;;;6.40;99.90;;;;;;4992701;28;20184;-66
2022/02/24 00:28:33;;;;;;;3.03;2.73;;;6.40;99.90;;;;;;5004387;28;20282;-66
2022/02/24 00:30:59;;;;;;;3.23;2.93;;;6.40;99.90;;;;;;4999862;28;20184;-66
2022/02/24 00:33:24;;;;;;;3.10;2.50;;;6.40;99.90;;;;;;5003813;28;20179;-66
2022/02/24 00:35:50;;;;;;;2.93;2.73;;;6.50;99.90;;;;;;4997884;28;20176;-66
2022/02/24 00:38:15;;;;;;;5.07;4.50;;;6.40;99.90;;;;;;4995187;28;21017;-66
2022/02/24 00:40:41;;;;;;;5.50;3.37;;;6.40;99.90;;;;;;4995810;28;20182;-66
2022/02/24 00:43:07;;;;;;;2.67;2.47;;;6.40;99.90;;;;;;4998920;28;20190;-66
2022/02/24 00:45:32;;;;;;;3.97;3.57;;;6.40;99.90;;;;;;4994624;28;20202;-66
2022/02/24 00:47:58;;;;;;;3.47;3.17;;;6.40;99.90;;;;;;4993250;28;20264;-66
2022/02/24 00:50:24;;;;;;;2.97;2.57;;;6.30;99.90;;;;;;4997483;28;20183;-66
2022/02/24 00:52:50;;;;;;;3.70;3.13;;;6.30;99.90;;;;;;5001457;28;21017;-66
2022/02/24 00:55:16;;;;;;;2.83;2.50;;;6.30;99.90;;;;;;5003158;28;20557;-66
2022/02/24 00:57:41;;;;;;;5.97;4.23;;;6.30;99.90;;;;;;4995064;28;20186;-66
2022/02/24 01:00:07;;;;;;;3.43;3.13;;;6.30;99.90;;;;;;4995963;28;20966;-66
2022/02/24 01:02:33;;;;;;;4.40;2.93;;;6.30;99.90;;;;;;4997969;28;20241;-66
2022/02/24 01:04:58;;;;;;;2.50;2.30;;;6.40;99.90;;;;;;4995283;28;20960;-66
2022/02/24 01:07:24;;;;;;;3.30;3.00;;;6.30;99.90;;;;;;4999379;28;20207;-66
2022/02/24 01:09:49;;;;;;;6.93;2.63;;;6.30;99.90;;;;;;4999529;28;20176;-66
2022/02/24 01:12:15;;;;;;;5.00;2.40;;;6.30;99.90;;;;;;4999621;28;20187;-66
2022/02/24 01:14:41;;;;;;;3.13;2.70;;;6.30;99.90;;;;;;4998255;28;20207;-66
2022/02/24 01:17:06;;;;;;;5.17;2.90;;;6.30;99.90;;;;;;4996700;28;20219;-66
2022/02/24 01:19:32;;;;;;;3.93;3.53;;;6.40;99.90;;;;;;4997113;28;20261;-66
2022/02/24 01:21:57;;;;;;;4.00;3.60;;;6.30;99.90;;;;;;4999324;28;20178;-66
2022/02/24 01:24:23;;;;;;;5.50;4.03;;;6.40;99.90;;;;;;5001753;28;20207;-66
2022/02/24 01:26:48;;;;;;;4.07;2.67;;;6.30;99.90;;;;;;4999738;28;20207;-66
2022/02/24 01:29:14;;;;;;;8.03;3.20;;;6.40;99.90;;;;;;4994393;28;20606;-66
2022/02/24 01:31:39;;;;;;;3.60;3.03;;;6.50;99.90;;;;;;5002499;28;20903;-66
2022/02/24 01:34:05;;;;;;;3.27;2.77;;;6.50;99.90;;;;;;4994291;28;20199;-66
2022/02/24 01:36:31;;;;;;;2.87;2.67;;;6.50;99.90;;;;;;5000650;28;20179;-66
2022/02/24 01:38:57;;;;;;;4.27;2.80;;;6.50;99.90;;;;;;4994170;28;20548;-66
2022/02/24 01:41:22;;;;;;;4.07;3.00;;;6.50;99.90;;;;;;4994998;28;20188;-66
2022/02/24 01:43:48;;;;;;;3.87;2.77;;;6.40;99.90;;;;;;4994957;28;20226;-66
2022/02/24 01:46:17;;;;;;;5.33;2.97;;;6.40;99.90;;;;;;5000440;28;20184;-66
2022/02/24 01:48:43;;;;;;;4.00;3.40;;;6.30;99.90;;;;;;4994869;28;20431;-66
2022/02/24 01:51:10;;;;;;;5.10;3.50;;;6.30;99.90;;;;;;4993895;28;20426;-66
2022/02/24 01:53:36;;;;;;;4.40;2.97;;;6.20;99.90;;;;;;4998121;28;20452;-66
2022/02/24 01:56:03;;;;;;;4.57;3.90;;;6.20;99.90;;;;;;4993495;28;20509;-66
2022/02/24 01:58:29;;;;;;;4.80;3.43;;;6.10;99.90;;;;;;5002278;28;20240;-66
2022/02/24 02:00:54;;;;;;;5.97;3.43;;;6.10;99.90;;;;;;4993749;28;20434;-66
2022/02/24 02:03:20;;;;;;;5.13;3.57;;;6.00;99.90;;;;;;4996736;28;20179;-66
2022/02/24 02:05:47;;;;;;;4.33;3.27;;;6.10;99.90;;;;;;4996355;28;20192;-66
2022/02/24 02:08:13;;;;;;;3.80;3.40;;;6.00;99.90;;;;;;5006586;28;20269;-66
2022/02/24 02:10:39;;;;;;;3.97;3.53;;;6.00;99.90;;;;;;5008451;28;20434;-66
2022/02/24 02:13:05;;;;;;;3.70;3.33;;;6.00;99.90;;;;;;5005083;28;20796;-66
2022/02/24 02:15:30;;;;;;;5.63;3.47;;;6.00;99.90;;;;;;5007870;28;20195;-66
2022/02/24 02:17:56;;;;;;;6.90;3.43;;;5.90;99.90;;;;;;4996874;28;20184;-66
2022/02/24 02:20:22;;;;;;;5.20;3.17;;;5.90;99.90;;;;;;4994506;28;20216;-66
2022/02/24 02:22:49;;;;;;;4.07;3.63;;;6.00;99.90;;;;;;5005267;28;20687;-66
2022/02/24 02:25:19;;;;;;;3.37;3.10;;;6.00;99.90;;;;;;4994367;28;20458;-66
2022/02/24 02:27:47;;;;;;;3.63;3.33;;;6.00;99.90;;;;;;5000038;28;20458;-66
2022/02/24 02:30:12;;;;;;;5.23;4.13;;;6.00;99.90;;;;;;5001220;28;20430;-66
2022/02/24 02:32:38;;;;;;;3.73;3.43;;;6.00;99.90;;;;;;4993012;28;20854;-66
2022/02/24 02:35:04;;;;;;;4.70;3.17;;;6.10;99.90;;;;;;4992766;28;20200;-66
2022/02/24 02:37:29;;;;;;;3.67;3.17;;;6.10;99.90;;;;;;4996019;28;20187;-66
2022/02/24 02:39:55;;;;;;;3.73;3.43;;;6.10;99.90;;;;;;4993588;28;20434;-66
2022/02/24 02:42:20;;;;;;;3.50;3.20;;;6.20;99.90;;;;;;4995800;28;20203;-66
2022/02/24 02:44:46;;;;;;;5.13;3.87;;;6.20;99.90;;;;;;4999060;28;20206;-66
2022/02/24 02:47:12;;;;;;;4.73;3.70;;;6.10;99.90;;;;;;5001480;28;20680;-66
2022/02/24 02:49:38;;;;;;;4.97;3.47;;;6.20;99.90;;;;;;4998499;28;20218;-66
2022/02/24 02:52:06;;;;;;;4.83;3.87;;;6.20;99.90;;;;;;4999182;28;20271;-66
2022/02/24 02:54:32;;;;;;;4.77;4.27;;;6.20;99.90;;;;;;4995164;28;20455;-66
2022/02/24 02:56:57;;;;;;;4.63;3.63;;;6.20;99.90;;;;;;4996202;28;20439;-66
2022/02/24 02:59:23;;;;;;;4.37;3.13;;;6.20;99.90;;;;;;4993319;28;20261;-66
2022/02/24 03:01:53;;;;;;;3.97;3.47;;;6.30;99.90;;;;;;4997164;28;20172;-66
2022/02/24 03:04:18;;;;;;;4.33;3.60;;;6.30;99.90;;;;;;4992486;28;20222;-66
2022/02/24 03:06:44;;;;;;;7.27;3.40;;;6.40;99.90;;;;;;5009757;28;20783;-66
2022/02/24 03:09:10;;;;;;;3.70;3.37;;;6.50;99.90;;;;;;5002661;28;20195;-66
2022/02/24 03:11:35;;;;;;;4.60;3.40;;;6.50;99.90;;;;;;4998830;28;20192;-66
2022/02/24 03:14:01;;;;;;;6.97;3.87;;;6.60;99.90;;;;;;4998929;28;20186;-66
2022/02/24 03:16:27;;;;;;;4.83;3.67;;;6.70;99.90;;;;;;5002869;28;20591;-66
2022/02/24 03:18:52;;;;;;;5.50;3.20;;;6.70;99.90;;;;;;5001274;28;20243;-66
2022/02/24 03:21:18;;;;;;;5.00;3.43;;;6.70;99.90;;;;;;5001016;28;20559;-66
2022/02/24 03:23:45;;;;;;;3.43;2.90;;;6.70;99.90;;;;;;4994143;28;20709;-66
2022/02/24 03:26:11;;;;;;;3.77;2.90;;;6.80;99.90;;;;;;4994300;28;20266;-66
2022/02/24 03:28:37;;;;;;;5.43;2.80;;;6.90;99.90;;;;;;4995748;28;20573;-66
2022/02/24 03:31:03;;;;;;;4.20;2.97;;;6.80;99.90;;;;;;4992340;28;20489;-66
2022/02/24 03:33:28;;;;;;;3.43;3.10;;;6.90;99.90;;;;;;4994411;28;20211;-66
2022/02/24 03:35:54;;;;;;;4.93;3.60;;;6.90;99.90;;;;;;4994954;28;20179;-66
2022/02/24 03:38:19;;;;;;;11.03;2.97;;;6.80;99.90;;;;;;5006205;28;20597;-66
2022/02/24 03:40:45;;;;;;;4.80;2.97;;;6.90;99.90;;;;;;4993810;28;20191;-66
2022/02/24 03:43:10;;;;;;;5.07;2.90;;;6.80;99.90;;;;;;5002887;28;20195;-66
2022/02/24 03:45:36;;;;;;;3.73;3.43;;;6.80;99.90;;;;;;4999185;28;20696;-66
2022/02/24 03:48:01;;;;;;;7.10;3.57;;;6.80;99.90;;;;;;5003089;28;20199;-66
2022/02/24 03:50:27;;;;;;;5.37;2.80;;;6.80;99.90;;;;;;4993229;28;20580;-66
2022/02/24 03:52:53;;;;;;;3.20;2.83;;;6.70;99.90;;;;;;5006006;28;20676;-66
2022/02/24 03:55:18;;;;;;;4.57;3.37;;;6.70;99.90;;;;;;5005294;28;20227;-66
2022/02/24 03:57:44;;;;;;;3.20;2.90;;;6.60;99.90;;;;;;5002148;28;20552;-66
2022/02/24 04:00:10;;;;;;;6.50;3.30;;;6.50;99.90;;;;;;4993277;28;20186;-66
2022/02/24 04:02:36;;;;;;;3.90;3.10;;;6.50;99.90;;;;;;4995796;28;20902;-66
2022/02/24 04:05:01;;;;;;;6.53;4.50;;;6.40;99.90;;;;;;4991585;28;20469;-66
2022/02/24 04:07:27;;;;;;;8.00;3.73;;;6.40;99.90;;;;;;4991643;28;20237;-66
2022/02/24 04:09:53;;;;;;;5.37;2.40;;;6.40;99.90;;;;;;5002827;28;20187;-66
2022/02/24 04:12:19;;;;;;;4.67;2.80;;;6.30;99.90;;;;;;5005292;28;20444;-66
2022/02/24 04:14:46;;;;;;;3.40;3.10;;;6.30;99.90;;;;;;4992692;28;20450;-67
2022/02/24 04:17:12;;;;;;;16.10;4.50;;;6.20;99.90;;;;;;5002441;28;20182;-66
2022/02/24 04:19:37;;;;;;;6.90;4.10;;;6.20;99.90;;;;;;5003299;28;20950;-66
2022/02/24 04:22:03;;;;;;;6.03;3.20;;;6.20;99.90;;;;;;4992387;28;20451;-66
2022/02/24 04:24:29;;;;;;;4.90;3.67;;;6.20;99.90;;;;;;5003946;28;20207;-66
2022/02/24 04:26:55;;;;;;;4.70;3.70;;;6.20;99.90;;;;;;5002544;28;20942;-66
2022/02/24 04:29:20;;;;;;;4.33;2.97;;;6.10;99.90;;;;;;5004430;28;20184;-66
2022/02/24 04:31:46;;;;;;;3.40;3.10;;;6.10;99.90;;;;;;4996545;28;20282;-66
2022/02/24 04:34:11;;;;;;;4.00;3.43;;;6.10;99.90;;;;;;4995576;28;20865;-66
2022/02/24 04:36:37;;;;;;;3.07;2.30;;;6.10;99.90;;;;;;4998171;28;20270;-67
2022/02/24 04:39:03;;;;;;;5.90;3.70;;;6.10;99.90;;;;;;4995329;28;20178;-66
2022/02/24 04:41:29;;;;;;;3.97;3.57;;;6.10;99.90;;;;;;4999174;28;20180;-66
2022/02/24 04:43:54;;;;;;;3.70;3.30;;;6.20;99.90;;;;;;4999896;28;20443;-67
2022/02/24 04:46:20;;;;;;;7.57;3.50;;;6.20;99.90;;;;;;4997083;28;20230;-67
2022/02/24 04:48:45;;;;;;;3.33;2.60;;;6.30;99.90;;;;;;4996123;28;20710;-66
2022/02/24 04:51:11;;;;;;;5.90;3.87;;;6.30;99.90;;;;;;4996297;28;20229;-66
2022/02/24 04:53:36;;;;;;;4.70;3.50;;;6.30;99.90;;;;;;5002079;28;20200;-66
2022/02/24 04:56:02;;;;;;;5.23;3.50;;;6.30;99.90;;;;;;4995715;28;20187;-66
2022/02/24 04:58:28;;;;;;;7.27;3.63;;;6.30;99.90;;;;;;5007326;28;20268;-66
2022/02/24 05:00:53;;;;;;;7.10;3.77;;;6.30;99.90;;;;;;5010003;28;20188;-67
2022/02/24 05:03:19;;;;;;;4.43;3.07;;;6.30;99.90;;;;;;5011147;28;20178;-67
2022/02/24 05:05:45;;;;;;;5.30;3.70;;;6.20;99.90;;;;;;5001387;28;20446;-66
2022/02/24 05:08:10;;;;;;;6.43;4.20;;;6.20;99.90;;;;;;5003324;28;20237;-66
2022/02/24 05:10:36;;;;;;;6.47;3.60;;;6.20;99.90;;;;;;4994928;28;20205;-67
2022/02/24 05:13:01;;;;;;;4.13;3.73;;;6.10;99.90;;;;;;4996868;28;20163;-67
2022/02/24 05:15:27;;;;;;;4.17;3.30;;;6.00;99.90;;;;;;4994474;28;20865;-66
2022/02/24 05:17:53;;;;;;;4.87;4.20;;;6.00;99.90;;;;;;5007149;28;20175;-67
2022/02/24 05:20:18;;;;;;;4.70;3.83;;;6.00;99.90;;;;;;4997784;28;20653;-66
2022/02/24 05:22:44;;;;;;;4.53;3.70;;;5.90;99.90;;;;;;4999674;28;20186;-66
2022/02/24 05:25:12;;;;;;;8.10;5.07;;;5.90;99.90;;;;;;4995155;28;20199;-67
2022/02/24 05:27:38;;;;;;;6.53;5.03;;;5.90;99.90;;;;;;5004119;28;20229;-67
2022/02/24 05:30:05;;;;;;;8.30;4.73;;;5.90;99.90;;;;;;5008336;28;20485;-66
2022/02/24 05:32:31;;;;;;;5.60;4.83;;;5.90;99.90;;;;;;4997183;28;20472;-66
2022/02/24 05:34:57;;;;;;;4.57;4.07;;;5.90;99.90;;;;;;4994016;28;20478;-66
2022/02/24 05:37:26;;;;;;;5.90;5.20;;;5.90;99.90;;;;;;4999287;28;20668;-67
2022/02/24 05:39:53;;;;;;;7.50;4.97;;;5.90;99.90;;;;;;5002314;28;20179;-67
2022/02/24 05:42:18;;;;;;;5.27;4.77;;;5.90;99.90;;;;;;4996905;28;20468;-66
2022/02/24 05:44:44;;;;;;;5.43;4.87;;;5.90;99.90;;;;;;5003532;28;21033;-67
2022/02/24 05:47:09;;;;;;;6.03;5.43;;;5.90;99.90;;;;;;4994125;28;20258;-67
2022/02/24 05:49:35;;;;;;;5.20;4.70;;;5.90;99.90;;;;;;4993881;28;20263;-66
2022/02/24 05:52:00;;;;;;;6.83;5.13;;;5.90;99.90;;;;;;5001670;28;20179;-67
2022/02/24 05:54:26;;;;;;;7.10;5.57;;;5.90;99.90;;;;;;4996388;28;20272;-66
2022/02/24 05:56:51;;;;;;;5.60;5.10;;;5.80;99.90;;;;;;4994282;28;20594;-67
2022/02/24 05:59:17;;;;;;;5.40;4.90;;;5.80;99.90;;;;;;4994742;28;20877;-67
2022/02/24 06:01:42;;;;;;;6.13;5.10;;;5.80;99.90;;;;;;4994342;28;20180;-67
2022/02/24 06:04:08;;;;;;;7.40;5.20;;;5.80;99.90;;;;;;5002264;28;20209;-67
2022/02/24 06:06:33;;;;;;;14.50;5.63;;;5.70;99.90;;;;;;4993078;28;20179;-67
2022/02/24 06:08:59;;;;;;;9.43;6.17;;;5.80;99.90;;;;;;4993261;28;20247;-67
2022/02/24 06:11:24;;;;;;;9.07;5.67;;;5.80;99.90;;;;;;4993645;28;20182;-67
2022/02/24 06:13:50;;;;;;;6.90;5.53;;;5.70;99.90;;;;;;4993391;28;20203;-67
2022/02/24 06:16:15;;;;;;;6.70;5.57;;;5.70;99.90;;;;;;4993023;28;20184;-67
2022/02/24 06:18:41;;;;;;;7.47;6.10;;;5.70;99.90;;;;;;4993383;28;20198;-66
2022/02/24 06:21:07;;;;;;;8.03;6.20;;;5.70;99.90;;;;;;4993144;28;20271;-67
2022/02/24 06:23:33;;;;;;;8.37;6.43;;;5.70;99.90;;;;;;4993239;28;20545;-67
2022/02/24 06:25:58;;;;;;;8.90;7.07;;;5.70;99.90;;;;;;4992785;28;20186;-67
2022/02/24 06:28:24;;;;;;;7.93;6.50;;;5.70;99.90;;;;;;4992832;28;20203;-67
2022/02/24 06:30:49;;;;;;;10.00;7.07;;;5.70;99.90;;;;;;4993150;28;20968;-67
2022/02/24 06:33:15;;;;;;;9.17;7.03;;;5.70;99.90;;;;;;4992865;28;20188;-67
2022/02/24 06:35:41;;;;;;;9.03;6.60;;;5.70;99.90;;;;;;4991101;28;20176;-67
2022/02/24 06:38:06;;;;;;;11.20;6.60;;;5.70;99.90;;;;;;4992526;28;20183;-67
2022/02/24 06:40:32;;;;;;;7.67;6.67;;;5.70;99.90;;;;;;4992854;28;20299;-67
2022/02/24 06:42:58;;;;;;;8.47;6.70;;;5.70;99.90;;;;;;4992668;28;20550;-66
2022/02/24 06:45:24;;;;;;;8.30;6.50;;;5.70;99.90;;;;;;5008346;28;20584;-67
2022/02/24 06:47:49;;;;;;;8.23;6.93;;;5.70;99.90;;;;;;4992721;28;20463;-67
2022/02/24 06:50:15;;;;;;;8.57;7.60;;;5.70;99.90;;;;;;4992311;28;20677;-66
2022/02/24 06:52:42;;;;;;;10.30;6.80;;;5.80;99.90;;;;;;4993473;28;20175;-67
2022/02/24 06:55:08;;;;;;;8.07;7.00;;;5.80;99.90;;;;;;4996434;28;20642;-67
2022/02/24 06:57:46;;;;;;;8.63;6.90;;;5.90;99.90;;;;;;5000755;28;20842;-66
2022/02/24 07:00:13;;;;;;;11.03;7.37;;;5.90;99.90;;;;;;4994616;28;20465;-66
2022/02/24 07:02:39;;;;;;;8.23;7.30;;;5.90;99.90;;;;;;5001203;28;20437;-66
2022/02/24 07:05:06;;;;;;;8.40;7.30;;;6.00;99.90;;;;;;5004033;28;20465;-67
2022/02/24 07:07:34;;;;;;;9.33;7.30;;;6.00;99.90;;;;;;4994549;28;20253;-66
2022/02/24 07:10:00;;;;;;;9.30;6.60;;;6.00;99.90;;;;;;4992170;28;20438;-66
2022/02/24 07:12:25;;;;;;;9.73;8.10;;;6.10;99.90;;;;;;5000999;28;21094;-66
2022/02/24 07:14:51;;;;;;;11.27;7.20;;;6.10;99.90;;;;;;4992105;28;20542;-67
2022/02/24 07:17:16;;;;;;;9.03;7.10;;;6.20;99.90;;;;;;4990691;28;20184;-67
2022/02/24 07:19:42;;;;;;;9.57;7.33;;;6.20;99.90;;;;;;4991584;28;20171;-66
2022/02/24 07:22:07;;;;;;;9.97;8.20;;;6.30;99.90;;;;;;4992837;28;20206;-67
2022/02/24 07:24:33;;;;;;;10.63;7.47;;;6.40;99.90;;;;;;4992053;28;20204;-66
2022/02/24 07:26:58;;;;;;;9.63;7.70;;;6.50;99.90;;;;;;4991761;28;20223;-67
2022/02/24 07:29:24;;;;;;;10.70;6.90;;;6.50;99.90;;;;;;4992125;28;20660;-66
2022/02/24 07:31:49;;;;;;;8.83;7.37;;;6.70;99.90;;;;;;4996536;28;20171;-66
2022/02/24 07:34:15;;;;;;;10.90;7.07;;;6.80;99.90;;;;;;4998700;28;20203;-66
2022/02/24 07:36:42;;;;;;;7.43;5.87;;;6.80;99.90;;;;;;4996360;28;20199;-66
2022/02/24 07:39:10;;;;;;;8.00;6.60;;;6.90;99.90;;;;;;4991458;28;20290;-66
2022/02/24 07:41:37;;;;;;;7.73;6.30;;;7.00;99.90;;;;;;4995596;28;20486;-66
2022/02/24 07:44:03;;;;;;;11.63;8.13;;;7.10;99.90;;;;;;4996594;28;20445;-66
2022/02/24 07:46:29;;;;;;;8.80;7.90;;;7.20;99.90;;;;;;4999173;28;20445;-66
2022/02/24 07:48:54;;;;;;;11.20;6.90;;;7.40;99.90;;;;;;4997217;28;20213;-66
2022/02/24 07:51:20;;;;;;;9.93;7.07;;;7.60;99.90;;;;;;5004857;28;20175;-66
2022/02/24 07:53:45;;;;;;;8.63;7.47;;;7.70;99.90;;;;;;4994520;28;20761;-66
2022/02/24 07:56:11;;;;;;;8.77;5.93;;;7.80;99.90;;;;;;4973650;28;20195;-66
2022/02/24 07:58:36;;;;;;;7.63;6.73;;;7.80;99.90;;;;;;4967370;28;20609;-67
2022/02/24 08:01:02;;;;;;;8.67;6.63;;;7.80;99.90;;;;;;4995358;28;20178;-66
2022/02/24 08:03:27;;;;;;;7.67;6.33;;;7.90;99.90;;;;;;4995260;28;20265;-67
2022/02/24 08:05:54;;;;;;;11.20;7.73;;;8.10;99.90;;;;;;4994219;28;20633;-66
2022/02/24 08:08:20;;;;;;;9.60;8.70;;;8.30;99.90;;;;;;4995873;28;20217;-66
2022/02/24 08:10:45;;;;;;;9.33;7.87;;;8.40;99.90;;;;;;4992452;28;20446;-66
2022/02/24 08:13:11;;;;;;;6.73;5.90;;;8.50;99.90;;;;;;4993961;28;20203;-66
2022/02/24 08:15:36;;;;;;;6.73;6.00;;;8.70;99.90;;;;;;4996229;28;20518;-66
2022/02/24 08:18:02;;;;;;;8.60;6.20;;;8.80;99.90;;;;;;4994414;28;20693;-66
2022/02/24 08:20:28;;;;;;;8.10;6.60;;;9.00;99.90;;;;;;4992200;28;20190;-66
2022/02/24 08:22:53;;;;;;;6.23;5.63;;;9.10;99.90;;;;;;4993288;28;20187;-66
2022/02/24 08:25:20;;;;;;;7.40;5.60;;;9.30;99.90;;;;;;4992208;28;20199;-66
2022/02/24 08:27:47;;;;;;;5.27;4.77;;;9.40;99.90;;;;;;4991411;28;20208;-65
2022/02/24 08:30:17;;;;;;;9.30;5.57;;;9.60;99.90;;;;;;4999290;28;20439;-66
2022/02/24 08:32:43;;;;;;;5.90;5.30;;;9.90;99.90;;;;;;4995255;28;20470;-66
2022/02/24 08:35:10;;;;;;;12.60;6.43;;;10.20;99.90;;;;;;4991689;28;20580;-66
2022/02/24 08:37:37;;;;;;;5.93;5.27;;;10.50;99.90;;;;;;4988953;28;20446;-66
2022/02/24 08:40:04;;;;;;;6.20;5.60;;;10.70;99.90;;;;;;4991234;28;20442;-66
2022/02/24 08:42:29;;;;;;;5.43;4.43;;;10.90;99.90;;;;;;4995154;28;20474;-66
2022/02/24 08:44:56;;;;;;;5.00;4.50;;;11.20;99.90;;;;;;4998448;28;20490;-66
2022/02/24 08:47:21;;;;;;;6.80;4.90;;;11.60;99.90;;;;;;4993286;28;20207;-66
2022/02/24 08:49:48;;;;;;;6.47;5.20;;;11.50;99.90;;;;;;4991617;28;20461;-66
2022/02/24 08:52:14;;;;;;;6.63;4.50;;;11.20;99.90;;;;;;4998431;28;20956;-66
2022/02/24 08:54:40;;;;;;;6.30;5.13;;;11.40;99.90;;;;;;4991962;28;20463;-66
2022/02/24 08:57:06;;;;;;;5.33;4.43;;;11.50;99.90;;;;;;4989436;28;20454;-66
2022/02/24 08:59:32;;;;;;;6.23;4.70;;;11.80;99.90;;;;;;4992781;28;20948;-66
2022/02/24 09:01:58;;;;;;;5.50;4.80;;;12.10;99.90;;;;;;4996049;28;20183;-67
2022/02/24 09:04:24;;;;;;;5.30;4.80;;;12.50;99.90;;;;;;4991079;28;20466;-66
2022/02/24 09:06:49;;;;;;;8.00;5.07;;;12.90;99.90;;;;;;4992112;28;20188;-66
2022/02/24 09:09:16;;;;;;;4.77;4.37;;;13.30;99.90;;;;;;4998573;28;20179;-67
2022/02/24 09:11:41;;;;;;;4.97;4.47;;;13.70;99.90;;;;;;4991160;28;20525;-66
2022/02/24 09:14:07;;;;;;;6.13;4.43;;;14.00;99.90;;;;;;4998937;28;20465;-67
2022/02/24 09:16:32;;;;;;;6.10;4.20;;;15.00;99.90;;;;;;4987727;28;20180;-68
2022/02/24 09:18:58;;;;;;;4.83;4.10;;;15.50;99.90;;;;;;4991217;28;20266;-67
2022/02/24 09:21:24;;;;;;;5.20;3.43;;;15.10;99.90;;;;;;4992510;28;20234;-67
2022/02/24 09:23:50;;;;;;;5.73;3.00;;;14.30;99.90;;;;;;4991583;28;21070;-66
2022/02/24 09:26:15;;;;;;;3.90;3.50;;;13.10;99.90;;;;;;4987560;28;20430;-66
2022/02/24 09:28:41;;;;;;;4.60;3.80;;;12.40;99.90;;;;;;4993693;28;20242;-66
2022/02/24 09:31:07;;;;;;;5.90;4.00;;;12.10;99.90;;;;;;4992522;28;20183;-67
2022/02/24 09:33:32;;;;;;;6.27;3.47;;;11.80;99.90;;;;;;4990834;28;20210;-66
2022/02/24 09:35:58;;;;;;;4.20;3.40;;;11.60;99.90;;;;;;4993221;28;20207;-66
2022/02/24 09:38:25;;;;;;;3.87;3.13;;;11.60;99.90;;;;;;4992269;28;20631;-67
2022/02/24 09:40:56;;;;;;;3.90;3.20;;;11.60;99.90;;;;;;4995856;28;20590;-66
2022/02/24 09:43:26;;;;;;;6.13;3.27;;;12.00;99.90;;;;;;4990452;28;20814;-66
2022/02/24 09:45:51;;;;;;;3.23;2.93;;;12.10;99.90;;;;;;4990957;28;20446;-67
2022/02/24 09:48:19;;;;;;;5.53;3.13;;;12.30;99.90;;;;;;4990744;28;20477;-66
2022/02/24 09:50:52;;;;;;;3.57;3.07;;;12.20;99.90;;;;;;4990637;28;20275;-66
2022/02/24 09:53:18;;;;;;;6.43;4.20;;;12.30;99.90;;;;;;4993189;28;20530;-66
2022/02/24 09:55:44;;;;;;;3.27;2.97;;;12.40;99.90;;;;;;4990055;28;20443;-66
2022/02/24 09:58:10;;;;;;;3.00;2.70;;;12.50;99.90;;;;;;4990854;28;20439;-66
2022/02/24 10:00:37;;;;;;;3.07;2.80;;;12.80;99.90;;;;;;4999521;28;20207;-67
2022/02/24 10:03:22;;;;;;;3.50;3.10;;;13.00;99.90;;;;;;4998587;28;20183;-67
2022/02/24 10:05:48;;;;;;;4.40;3.03;;;13.90;99.90;;;;;;4986906;28;20450;-67
2022/02/24 10:08:13;;;;;;;2.70;2.00;;;15.20;99.90;;;;;;4990829;28;20547;-66
2022/02/24 10:10:40;;;;;;;5.80;4.20;;;16.80;98.20;;;;;;4990858;28;20184;-66
2022/02/24 10:13:11;;;;;;;4.17;2.87;;;17.70;94.50;;;;;;4990437;28;20275;-66
2022/02/24 10:15:38;;;;;;;3.40;2.43;;;17.90;93.10;;;;;;4988127;28;20439;-67
2022/02/24 10:18:16;;;;;;;3.63;2.50;;;17.80;91.90;;;;;;4994959;28;20439;-67
2022/02/24 10:20:50;;;;;;;3.00;2.30;;;17.00;92.20;;;;;;4995483;28;20588;-66
2022/02/24 10:23:18;;;;;;;4.60;4.07;;;17.20;92.30;;;;;;4990075;28;20442;-66
2022/02/24 10:25:52;;;;;;;3.50;2.57;;;17.50;91.60;;;;;;4989853;28;21011;-66
2022/02/24 10:28:49;;;;;;;8.23;2.70;;;18.00;90.60;;;;;;4993523;28;20972;-66
2022/02/24 10:31:25;;;;;;;2.97;2.40;;;18.70;87.50;;;;;;4988354;28;20526;-66
2022/02/24 10:34:15;;;;;;;3.23;2.93;;;18.70;85.70;;;;;;4996952;28;20454;-66
2022/02/24 10:36:41;;;;;;;12.13;6.30;;;17.80;86.30;;;;;;4987888;28;20513;-66
2022/02/24 10:39:10;;;;;;;6.83;4.20;;;17.10;88.90;;;;;;4993334;28;20530;-66
2022/02/24 10:41:41;;;;;;;5.27;3.03;;;16.80;89.80;;;;;;4995767;28;20211;-67
2022/02/24 10:44:14;;;;;;;4.50;2.53;;;17.30;90.00;;;;;;4993654;28;20828;-66
2022/02/24 10:46:41;;;;;;;3.80;3.20;;;17.60;87.60;;;;;;4981948;28;20458;-66
2022/02/24 10:49:07;;;;;;;3.60;3.27;;;17.70;86.70;;;;;;5004835;28;20429;-66
2022/02/24 10:51:34;;;;;;;4.47;4.07;;;16.80;88.70;;;;;;4993975;28;20939;-66
2022/02/24 10:54:11;;;;;;;3.27;2.97;;;16.90;89.30;;;;;;4995442;28;20196;-66
2022/02/24 10:56:42;;;;;;;5.30;3.50;;;16.80;88.20;;;;;;4989155;28;20496;-66
2022/02/24 10:59:09;;;;;;;2.60;2.30;;;16.70;89.60;;;;;;4995945;28;20426;-66
2022/02/24 11:01:35;;;;;;;4.03;3.00;;;16.70;88.90;;;;;;4992007;28;20431;-66
2022/02/24 11:04:06;;;;;;;10.13;3.67;;;17.20;88.40;;;;;;4993519;28;20454;-66
2022/02/24 11:06:34;;;;;;;4.03;3.73;;;17.00;88.00;;;;;;4990692;28;20434;-66
2022/02/24 11:09:00;;;;;;;5.80;3.30;;;17.20;88.50;;;;;;4999596;28;20465;-67
2022/02/24 11:11:28;;;;;;;3.30;3.00;;;17.30;87.60;;;;;;4995910;28;20426;-67
2022/02/24 11:13:57;;;;;;;4.70;2.90;;;17.50;87.00;;;;;;4995647;28;20536;-66
2022/02/24 11:16:23;;;;;;;5.40;4.07;;;17.60;86.10;;;;;;4991266;28;20547;-67
2022/02/24 11:18:49;;;;;;;7.27;2.87;;;17.90;87.00;;;;;;5002743;28;20573;-66
2022/02/24 11:21:16;;;;;;;2.93;2.33;;;18.40;84.70;;;;;;4997267;28;20443;-67
2022/02/24 11:23:44;;;;;;;4.07;2.97;;;19.40;83.10;;;;;;4991571;28;20458;-66
2022/02/24 11:26:21;;;;;;;4.53;4.13;;;19.70;78.20;;;;;;4988869;28;20435;-64
2022/02/24 11:29:10;;;;;;;4.87;2.77;;;19.90;78.10;;;;;;5004123;28;20469;-64
2022/02/24 11:31:50;;;;;;;10.10;5.80;;;18.90;78.70;;;;;;4991094;28;20439;-67
2022/02/24 11:34:15;;;;;;;6.83;5.83;;;18.40;77.80;;;;;;4977965;28;20512;-64
2022/02/24 11:36:46;;;;;;;24.80;16.17;;;18.20;78.90;;;;;;4992116;28;20947;-64
2022/02/24 11:39:17;;;;;;;14.07;10.20;;;18.60;80.00;;;;;;4996581;28;20526;-63
2022/02/24 11:41:45;;;;;;;2.93;2.73;;;18.70;76.70;;;;;;4997975;28;20956;-65
2022/02/24 11:44:35;;;;;;;4.67;2.73;;;18.00;74.70;;;;;;4993025;28;20462;-64
2022/02/24 11:47:04;;;;;;;3.20;2.90;;;17.30;77.30;;;;;;4988415;28;20470;-65
2022/02/24 11:49:55;;;;;;;2.80;2.60;;;16.90;78.70;;;;;;4995842;28;20497;-65
2022/02/24 11:52:21;;;;;;;4.63;3.30;;;16.80;79.00;;;;;;4994692;28;20437;-65
2022/02/24 11:54:47;;;;;;;4.00;3.13;;;16.70;79.00;;;;;;4998359;28;20454;-64
2022/02/24 11:57:29;;;;;;;5.13;3.77;;;16.30;79.80;;;;;;4988433;28;20431;-67
2022/02/24 11:59:57;;;;;;;2.13;2.03;;;16.00;79.20;;;;;;4994005;28;20718;-67
2022/02/24 12:02:42;;;;;;;6.67;3.33;;;15.50;79.50;;;;;;4980917;28;20862;-67
2022/02/24 12:05:29;;;;;;;4.70;3.27;;;15.10;80.80;;;;;;5002398;28;20465;-67
2022/02/24 12:08:07;;;;;;;3.70;2.40;;;15.20;81.70;;;;;;4992407;28;20466;-67
2022/02/24 12:10:47;;;;;;;2.20;2.00;;;15.10;80.90;;;;;;4991977;28;20441;-67
2022/02/24 12:13:29;;;;;;;5.40;2.93;;;15.20;81.30;;;;;;4992887;28;20444;-67
2022/02/24 12:16:14;;;;;;;2.50;2.30;;;15.30;82.40;;;;;;4990072;28;20484;-67
2022/02/24 12:18:41;;;;;;;2.40;2.20;;;15.30;81.70;;;;;;4993516;28;20475;-67
2022/02/24 12:21:31;;;;;;;3.53;2.47;;;15.10;80.70;;;;;;4996658;28;20442;-67
2022/02/24 12:24:00;;;;;;;4.33;1.80;;;14.90;82.30;;;;;;4997079;28;20450;-62
2022/02/24 12:26:49;;;;;;;4.30;2.17;;;14.90;81.80;;;;;;4990944;28;20432;-66
2022/02/24 12:29:28;;;;;;;4.00;2.37;;;14.90;81.90;;;;;;4992100;28;20457;-66
2022/02/24 12:32:01;;;;;;;3.60;2.20;;;14.90;82.20;;;;;;4991486;28;20956;-66
2022/02/24 12:34:28;;;;;;;3.13;2.30;;;14.70;82.10;;;;;;4990561;28;20593;-66
2022/02/24 12:37:10;;;;;;;5.90;3.33;;;14.40;83.00;;;;;;4989000;28;20431;-66
2022/02/24 12:39:37;;;;;;;2.43;2.13;;;14.40;84.70;;;;;;4993109;28;20897;-66
2022/02/24 12:42:04;;;;;;;2.40;1.93;;;14.20;85.80;;;;;;4991663;28;20487;-66
2022/02/24 12:44:35;;;;;;;3.10;1.67;;;14.20;85.30;;;;;;4995287;28;21085;-66
2022/02/24 12:47:02;;;;;;;4.83;2.07;;;14.10;86.40;;;;;;4991052;28;20446;-66
2022/02/24 12:49:27;;;;;;;2.87;1.73;;;14.20;86.30;;;;;;4999370;28;20438;-66
2022/02/24 12:51:57;;;;;;;2.30;2.10;;;14.10;86.30;;;;;;4997019;28;20435;-66
2022/02/24 12:54:26;;;;;;;2.80;2.20;;;14.10;86.70;;;;;;4992023;28;20229;-66